RYR8XK LIPE-LIBC
Flight info
| Callsign | RYR8XK |
|---|---|
| Flight time | 1h 8m |
| Altitude | 35000 |
| Route | PELEG M726 GAVRA DCT NIKMA DCT IPGOR DCT ALAXI DCT TEA DCT POLIT DCT EVINO M620 CDC |
| Aircraft | B738/M-SDE2E3FGHIRWXY/LB1 |
Departure
| Time | 2026-05-04 10:50 |
|---|---|
| Airport | Bologna Guglielmo Marconi Airport (LIPE) |
Arrival
| Time | 2026-05-04 11:58 |
|---|---|
| Airport | Crotone Sant'Anna Pythagoras Airport (LIBC) |
| Time | Latitude | Longitude | Altitude | Speed | Heading |
|---|---|---|---|---|---|
| 2026-05-04 10:28 | 44.52990 | 11.29147 | 125 ft | 0 kts | 116° |
| 2026-05-04 10:41 | 44.52997 | 11.29127 | 126 ft | 4 kts | 109° |
| 2026-05-04 10:42 | 44.53004 | 11.29096 | 124 ft | 2 kts | 110° |
| 2026-05-04 10:42 | 44.53006 | 11.29072 | 126 ft | 4 kts | 37° |
| 2026-05-04 10:42 | 44.52995 | 11.29061 | 126 ft | 3 kts | 27° |
| 2026-05-04 10:42 | 44.53014 | 11.29075 | 126 ft | 0 kts | 27° |
| 2026-05-04 10:44 | 44.53017 | 11.29077 | 125 ft | 3 kts | 27° |
| 2026-05-04 10:45 | 44.53077 | 11.29120 | 129 ft | 14 kts | 27° |
| 2026-05-04 10:45 | 44.53163 | 11.29180 | 129 ft | 14 kts | 26° |
| 2026-05-04 10:45 | 44.53232 | 11.29178 | 127 ft | 11 kts | 310° |
| 2026-05-04 10:45 | 44.53273 | 11.29071 | 127 ft | 15 kts | 296° |
| 2026-05-04 10:46 | 44.53328 | 11.28922 | 127 ft | 18 kts | 297° |
| 2026-05-04 10:46 | 44.53383 | 11.28770 | 126 ft | 17 kts | 296° |
| 2026-05-04 10:46 | 44.53434 | 11.28622 | 126 ft | 17 kts | 296° |
| 2026-05-04 10:46 | 44.53485 | 11.28482 | 125 ft | 16 kts | 297° |
| 2026-05-04 10:47 | 44.53534 | 11.28346 | 128 ft | 15 kts | 296° |
| 2026-05-04 10:47 | 44.53587 | 11.28197 | 126 ft | 20 kts | 297° |
| 2026-05-04 10:47 | 44.53654 | 11.28011 | 125 ft | 22 kts | 296° |
| 2026-05-04 10:47 | 44.53723 | 11.27823 | 129 ft | 22 kts | 297° |
| 2026-05-04 10:49 | 44.53634 | 11.28616 | 126 ft | 133 kts | 116° |
| 2026-05-04 10:49 | 44.53151 | 11.29971 | 307 ft | 166 kts | 116° |
| 2026-05-04 10:50 | 44.52587 | 11.31377 | 1017 ft | 168 kts | 120° |
| 2026-05-04 10:51 | 44.47878 | 11.43846 | 5101 ft | 258 kts | 143° |
| 2026-05-04 10:52 | 44.46423 | 11.45401 | 5773 ft | 267 kts | 144° |
| 2026-05-04 10:52 | 44.44978 | 11.47008 | 6792 ft | 265 kts | 143° |
| 2026-05-04 10:52 | 44.43532 | 11.48661 | 7558 ft | 272 kts | 142° |
| 2026-05-04 10:54 | 44.32626 | 11.61673 | 12253 ft | 330 kts | 141° |
| 2026-05-04 10:54 | 44.30887 | 11.63773 | 13191 ft | 329 kts | 141° |
| 2026-05-04 10:56 | 44.16640 | 11.74838 | 17869 ft | 356 kts | 173° |
| 2026-05-04 10:56 | 44.14174 | 11.75295 | 18510 ft | 360 kts | 173° |
| 2026-05-04 10:56 | 44.11678 | 11.75759 | 19082 ft | 363 kts | 173° |
| 2026-05-04 10:57 | 44.09161 | 11.76237 | 19658 ft | 367 kts | 173° |
| 2026-05-04 10:57 | 44.06620 | 11.76730 | 20152 ft | 373 kts | 173° |
| 2026-05-04 10:57 | 44.03990 | 11.77246 | 20235 ft | 390 kts | 173° |
| 2026-05-04 10:57 | 44.01250 | 11.77787 | 20401 ft | 403 kts | 173° |
| 2026-05-04 10:58 | 43.98429 | 11.78347 | 20533 ft | 416 kts | 173° |
| 2026-05-04 10:58 | 43.96513 | 11.78728 | 20600 ft | 425 kts | 173° |
| 2026-05-04 10:58 | 43.93547 | 11.79317 | 20740 ft | 435 kts | 173° |
| 2026-05-04 10:58 | 43.90524 | 11.79916 | 21054 ft | 441 kts | 173° |
| 2026-05-04 10:59 | 43.87479 | 11.80521 | 21486 ft | 443 kts | 173° |
| 2026-05-04 10:59 | 43.84421 | 11.81133 | 21898 ft | 445 kts | 173° |
| 2026-05-04 10:59 | 43.81343 | 11.81751 | 22209 ft | 449 kts | 173° |
| 2026-05-04 10:59 | 43.78244 | 11.82399 | 22554 ft | 453 kts | 171° |
| 2026-05-04 11:00 | 43.75180 | 11.83507 | 22840 ft | 459 kts | 162° |
| 2026-05-04 11:01 | 43.53871 | 11.94464 | 25021 ft | 475 kts | 162° |
| 2026-05-04 11:02 | 43.50765 | 11.96020 | 25321 ft | 476 kts | 162° |
| 2026-05-04 11:02 | 43.47650 | 11.97579 | 25606 ft | 477 kts | 162° |
| 2026-05-04 11:05 | 43.03818 | 12.19375 | 29746 ft | 475 kts | 162° |
| 2026-05-04 11:06 | 43.00717 | 12.20910 | 30081 ft | 474 kts | 162° |
| 2026-05-04 11:06 | 42.97619 | 12.22445 | 30396 ft | 473 kts | 162° |
| 2026-05-04 11:06 | 42.94525 | 12.23975 | 30657 ft | 473 kts | 162° |
| 2026-05-04 11:06 | 42.91432 | 12.25502 | 30904 ft | 473 kts | 162° |
| 2026-05-04 11:08 | 42.71988 | 12.42761 | 32450 ft | 483 kts | 147° |
| 2026-05-04 11:10 | 42.52835 | 12.60945 | 34218 ft | 480 kts | 148° |
| 2026-05-04 11:12 | 42.33455 | 12.79196 | 35178 ft | 487 kts | 147° |
| 2026-05-04 11:12 | 42.30667 | 12.81810 | 35180 ft | 489 kts | 147° |
| 2026-05-04 11:12 | 42.25060 | 12.87058 | 35187 ft | 492 kts | 148° |
| 2026-05-04 11:13 | 42.19415 | 12.92331 | 35187 ft | 495 kts | 148° |
| 2026-05-04 11:13 | 42.13738 | 12.97623 | 35181 ft | 497 kts | 148° |
| 2026-05-04 11:14 | 42.12777 | 12.98517 | 35177 ft | 497 kts | 148° |
| 2026-05-04 11:16 | 41.85439 | 13.23827 | 35177 ft | 489 kts | 148° |
| 2026-05-04 11:16 | 41.79825 | 13.28992 | 35173 ft | 489 kts | 148° |
| 2026-05-04 11:17 | 41.74219 | 13.34182 | 35185 ft | 491 kts | 145° |
| 2026-05-04 11:19 | 41.57632 | 13.57524 | 35178 ft | 496 kts | 134° |
| 2026-05-04 11:19 | 41.55277 | 13.60883 | 35186 ft | 496 kts | 134° |
| 2026-05-04 11:19 | 41.50580 | 13.67559 | 35183 ft | 497 kts | 135° |
| 2026-05-04 11:20 | 41.45850 | 13.74272 | 35182 ft | 497 kts | 135° |
| 2026-05-04 11:20 | 41.41112 | 13.80986 | 35182 ft | 497 kts | 135° |
| 2026-05-04 11:22 | 41.23243 | 14.02225 | 35190 ft | 492 kts | 153° |
| 2026-05-04 11:22 | 41.20252 | 14.04435 | 35187 ft | 492 kts | 153° |
| 2026-05-04 11:23 | 41.14268 | 14.08883 | 35183 ft | 493 kts | 153° |
| 2026-05-04 11:25 | 40.93249 | 14.24786 | 35185 ft | 500 kts | 153° |
| 2026-05-04 11:25 | 40.87220 | 14.29336 | 35169 ft | 499 kts | 153° |
| 2026-05-04 11:27 | 40.60415 | 14.49437 | 35184 ft | 504 kts | 154° |
| 2026-05-04 11:28 | 40.55944 | 14.52772 | 35181 ft | 506 kts | 154° |
| 2026-05-04 11:28 | 40.51086 | 14.57051 | 35197 ft | 511 kts | 144° |
| 2026-05-04 11:29 | 40.45643 | 14.62918 | 35190 ft | 514 kts | 142° |
| 2026-05-04 11:29 | 40.40329 | 14.68719 | 35188 ft | 515 kts | 143° |
| 2026-05-04 11:33 | 40.00927 | 15.09961 | 35188 ft | 518 kts | 143° |
| 2026-05-04 11:33 | 39.98106 | 15.12885 | 35066 ft | 520 kts | 143° |
| 2026-05-04 11:33 | 39.95265 | 15.15825 | 34708 ft | 522 kts | 143° |
| 2026-05-04 11:34 | 39.92425 | 15.18762 | 34316 ft | 520 kts | 143° |
| 2026-05-04 11:34 | 39.89599 | 15.21682 | 33844 ft | 518 kts | 143° |
| 2026-05-04 11:34 | 39.86762 | 15.24609 | 33411 ft | 522 kts | 143° |
| 2026-05-04 11:34 | 39.83908 | 15.27549 | 32985 ft | 524 kts | 143° |
| 2026-05-04 11:35 | 39.81046 | 15.30496 | 32580 ft | 524 kts | 143° |
| 2026-05-04 11:35 | 39.78193 | 15.33430 | 32152 ft | 522 kts | 143° |
| 2026-05-04 11:35 | 39.75352 | 15.36351 | 31730 ft | 520 kts | 143° |
| 2026-05-04 11:35 | 39.72518 | 15.39260 | 31316 ft | 518 kts | 143° |
| 2026-05-04 11:36 | 39.69690 | 15.42159 | 30905 ft | 517 kts | 143° |
| 2026-05-04 11:36 | 39.66868 | 15.45050 | 30497 ft | 516 kts | 143° |
| 2026-05-04 11:36 | 39.64048 | 15.47934 | 30054 ft | 516 kts | 143° |
| 2026-05-04 11:36 | 39.61233 | 15.50811 | 29582 ft | 515 kts | 143° |
| 2026-05-04 11:37 | 39.58415 | 15.53688 | 29143 ft | 515 kts | 143° |
| 2026-05-04 11:37 | 39.55603 | 15.56556 | 28691 ft | 515 kts | 143° |
| 2026-05-04 11:37 | 39.52784 | 15.59427 | 28252 ft | 516 kts | 143° |
| 2026-05-04 11:37 | 39.49960 | 15.62301 | 27802 ft | 517 kts | 143° |
| 2026-05-04 11:38 | 39.47134 | 15.65173 | 27366 ft | 517 kts | 143° |
| 2026-05-04 11:38 | 39.44301 | 15.68049 | 26921 ft | 518 kts | 143° |
| 2026-05-04 11:38 | 39.41466 | 15.70926 | 26476 ft | 518 kts | 143° |
| 2026-05-04 11:38 | 39.38625 | 15.73804 | 26030 ft | 519 kts | 143° |
| 2026-05-04 11:39 | 39.35776 | 15.76688 | 25586 ft | 520 kts | 143° |
| 2026-05-04 11:39 | 39.32925 | 15.79570 | 25138 ft | 520 kts | 143° |
| 2026-05-04 11:40 | 39.16338 | 15.96284 | 22391 ft | 490 kts | 143° |
| 2026-05-04 11:41 | 39.13659 | 15.98973 | 21949 ft | 486 kts | 143° |
| 2026-05-04 11:41 | 39.11005 | 16.01634 | 21539 ft | 482 kts | 143° |
| 2026-05-04 11:41 | 39.08402 | 16.04242 | 21116 ft | 479 kts | 143° |
| 2026-05-04 11:41 | 39.05783 | 16.06863 | 20697 ft | 475 kts | 142° |
| 2026-05-04 11:42 | 39.03181 | 16.09466 | 20285 ft | 472 kts | 142° |
| 2026-05-04 11:42 | 39.00598 | 16.12046 | 19875 ft | 469 kts | 142° |
| 2026-05-04 11:42 | 38.98028 | 16.14610 | 19472 ft | 466 kts | 142° |
| 2026-05-04 11:42 | 38.95480 | 16.17152 | 19052 ft | 462 kts | 142° |
| 2026-05-04 11:43 | 38.92953 | 16.19671 | 18529 ft | 458 kts | 142° |
| 2026-05-04 11:43 | 38.90464 | 16.22149 | 18053 ft | 447 kts | 142° |
| 2026-05-04 11:43 | 38.88025 | 16.24575 | 17626 ft | 442 kts | 142° |
| 2026-05-04 11:43 | 38.85593 | 16.26992 | 17246 ft | 442 kts | 142° |
| 2026-05-04 11:44 | 38.83166 | 16.29402 | 16825 ft | 441 kts | 142° |
| 2026-05-04 11:44 | 38.80779 | 16.31865 | 16430 ft | 440 kts | 136° |
| 2026-05-04 11:44 | 38.78978 | 16.34991 | 16099 ft | 436 kts | 114° |
| 2026-05-04 11:44 | 38.78072 | 16.38654 | 15698 ft | 431 kts | 97° |
| 2026-05-04 11:45 | 38.77967 | 16.42460 | 15293 ft | 425 kts | 83° |
| 2026-05-04 11:45 | 38.78612 | 16.46116 | 14877 ft | 418 kts | 66° |
| 2026-05-04 11:45 | 38.79771 | 16.49512 | 14478 ft | 414 kts | 63° |
| 2026-05-04 11:45 | 38.80969 | 16.52864 | 14069 ft | 413 kts | 63° |
| 2026-05-04 11:46 | 38.82143 | 16.56210 | 13631 ft | 411 kts | 64° |
| 2026-05-04 11:46 | 38.83288 | 16.59557 | 13190 ft | 409 kts | 64° |
| 2026-05-04 11:46 | 38.84416 | 16.62890 | 12773 ft | 406 kts | 64° |
| 2026-05-04 11:46 | 38.85658 | 16.66113 | 12397 ft | 401 kts | 59° |
| 2026-05-04 11:47 | 38.86574 | 16.68161 | 12145 ft | 399 kts | 58° |
| 2026-05-04 11:47 | 38.88478 | 16.72225 | 11607 ft | 395 kts | 57° |
| 2026-05-04 11:47 | 38.89412 | 16.74217 | 11347 ft | 393 kts | 57° |
| 2026-05-04 11:47 | 38.90801 | 16.77229 | 10958 ft | 390 kts | 58° |
| 2026-05-04 11:48 | 38.92160 | 16.80225 | 10578 ft | 387 kts | 58° |
| 2026-05-04 11:48 | 38.93502 | 16.83216 | 10252 ft | 383 kts | 58° |
| 2026-05-04 11:48 | 38.94816 | 16.86160 | 9997 ft | 379 kts | 58° |
| 2026-05-04 11:48 | 38.96127 | 16.89100 | 9581 ft | 379 kts | 59° |
| 2026-05-04 11:49 | 38.97313 | 16.92123 | 9172 ft | 379 kts | 70° |
| 2026-05-04 11:49 | 38.97891 | 16.95410 | 8696 ft | 376 kts | 78° |
| 2026-05-04 11:49 | 38.98342 | 16.98701 | 8095 ft | 373 kts | 78° |
| 2026-05-04 11:49 | 38.98817 | 17.01959 | 7492 ft | 364 kts | 78° |
| 2026-05-04 11:50 | 38.99295 | 17.05067 | 7168 ft | 344 kts | 77° |
| 2026-05-04 11:50 | 38.99757 | 17.07982 | 7002 ft | 322 kts | 77° |
| 2026-05-04 11:50 | 39.00191 | 17.10706 | 6939 ft | 300 kts | 77° |
| 2026-05-04 11:50 | 39.00594 | 17.13247 | 6879 ft | 280 kts | 77° |
| 2026-05-04 11:51 | 39.00971 | 17.15627 | 6826 ft | 263 kts | 77° |
| 2026-05-04 11:51 | 39.01330 | 17.17889 | 6651 ft | 254 kts | 77° |
| 2026-05-04 11:51 | 39.01791 | 17.20029 | 6412 ft | 244 kts | 59° |
| 2026-05-04 11:51 | 39.02909 | 17.21542 | 6213 ft | 231 kts | 27° |
| 2026-05-04 11:52 | 39.04416 | 17.22157 | 5974 ft | 227 kts | 3° |
| 2026-05-04 11:52 | 39.05973 | 17.21948 | 5726 ft | 226 kts | 340° |
| 2026-05-04 11:52 | 39.07365 | 17.21046 | 5500 ft | 224 kts | 329° |
| 2026-05-04 11:52 | 39.08704 | 17.20025 | 5256 ft | 224 kts | 328° |
| 2026-05-04 11:53 | 39.10040 | 17.19005 | 5012 ft | 223 kts | 329° |
| 2026-05-04 11:53 | 39.11372 | 17.17990 | 4763 ft | 221 kts | 329° |
| 2026-05-04 11:53 | 39.12678 | 17.16999 | 4514 ft | 215 kts | 329° |
| 2026-05-04 11:53 | 39.13916 | 17.16003 | 4285 ft | 214 kts | 319° |
| 2026-05-04 11:55 | 39.11919 | 17.05303 | 2832 ft | 184 kts | 184° |
| 2026-05-04 11:55 | 39.10626 | 17.05366 | 2568 ft | 184 kts | 175° |
| 2026-05-04 11:56 | 39.09372 | 17.05599 | 2340 ft | 180 kts | 172° |
| 2026-05-04 11:56 | 39.08152 | 17.05891 | 2111 ft | 176 kts | 170° |
| 2026-05-04 11:56 | 39.06960 | 17.06189 | 1867 ft | 171 kts | 170° |
| 2026-05-04 11:56 | 39.05821 | 17.06475 | 1686 ft | 164 kts | 169° |
| 2026-05-04 11:57 | 39.04711 | 17.06757 | 1436 ft | 157 kts | 169° |
| 2026-05-04 11:57 | 39.03669 | 17.07020 | 1207 ft | 149 kts | 170° |
| 2026-05-04 11:57 | 39.02669 | 17.07274 | 1027 ft | 146 kts | 170° |
| 2026-05-04 11:57 | 39.01648 | 17.07547 | 815 ft | 152 kts | 170° |
| 2026-05-04 11:58 | 39.00594 | 17.07808 | 581 ft | 154 kts | 171° |
| 2026-05-04 11:58 | 38.99618 | 17.08051 | 525 ft | 121 kts | 169° |
| 2026-05-04 11:58 | 38.99053 | 17.08193 | 528 ft | 46 kts | 169° |
| 2026-05-04 11:58 | 38.98910 | 17.08208 | 525 ft | 16 kts | 191° |
| 2026-05-04 11:59 | 38.98871 | 17.08231 | 524 ft | 5 kts | 53° |
| 2026-05-04 11:59 | 38.98927 | 17.08225 | 526 ft | 16 kts | 349° |
| 2026-05-04 11:59 | 38.99079 | 17.08185 | 528 ft | 24 kts | 348° |
| 2026-05-04 11:59 | 38.99235 | 17.08143 | 528 ft | 22 kts | 339° |
| 2026-05-04 12:00 | 38.99342 | 17.08013 | 525 ft | 21 kts | 310° |
| 2026-05-04 12:00 | 38.99421 | 17.07894 | 526 ft | 8 kts | 309° |
| 2026-05-04 12:00 | 38.99472 | 17.07862 | 526 ft | 10 kts | 348° |
| 2026-05-04 12:00 | 38.99514 | 17.07840 | 526 ft | 4 kts | 289° |
| 2026-05-04 12:01 | 38.99512 | 17.07804 | 526 ft | 3 kts | 264° |
| 2026-05-04 12:01 | 38.99515 | 17.07797 | 526 ft | 0 kts | 301° |
| 2026-05-04 12:02 | 38.99518 | 17.07794 | 527 ft | 0 kts | 306° |